Time;durP1;ratioP1;P1;durP2;ratioP2;P2;SDS_P1;SDS_P2;PMS_P1;PMS_P2;Temp;Humidity;BMP_temperature;BMP_pressure;BME280_temperature;BME280_humidity;BME280_pressure;Samples;Min_cycle;Max_cycle;Signal;HPM_P1;HPM_P2
2022/07/01 00:01:01;;;;;;;10.98;7.25;;;;;;;18.52;100.00;99821.17;1820921;76;20954;-63
2022/07/01 00:03:28;;;;;;;9.10;6.87;;;;;;;18.50;100.00;99823.95;1815117;78;21105;-63
2022/07/01 00:05:55;;;;;;;8.60;6.97;;;;;;;18.46;100.00;99827.14;1836708;76;20974;-61
2022/07/01 00:08:21;;;;;;;10.10;7.08;;;;;;;18.47;100.00;99821.84;1829131;76;21081;-63
2022/07/01 00:10:49;;;;;;;8.73;6.90;;;;;;;18.50;100.00;99826.15;1746045;79;20957;-63
2022/07/01 00:13:15;;;;;;;8.50;6.72;;;;;;;18.53;100.00;99819.23;1815711;78;21037;-61
2022/07/01 00:15:42;;;;;;;7.45;6.65;;;;;;;18.54;100.00;99822.22;1792834;78;20956;-61
2022/07/01 00:18:08;;;;;;;9.38;7.30;;;;;;;18.55;100.00;99815.58;1793356;78;21494;-61
2022/07/01 00:20:36;;;;;;;8.83;7.60;;;;;;;18.53;100.00;99817.27;1823010;77;21006;-63
2022/07/01 00:23:02;;;;;;;8.20;7.22;;;;;;;18.49;100.00;99826.48;1786760;79;21028;-63
2022/07/01 00:25:29;;;;;;;9.65;7.40;;;;;;;18.42;100.00;99824.21;1815540;77;21000;-63
2022/07/01 00:27:56;;;;;;;8.63;7.47;;;;;;;18.38;100.00;99830.12;1805105;77;21042;-63
2022/07/01 00:30:23;;;;;;;9.03;8.13;;;;;;;18.33;100.00;99823.36;1831387;77;21008;-63
2022/07/01 00:32:52;;;;;;;8.80;7.90;;;;;;;18.27;100.00;99821.34;1824475;78;21533;-62
2022/07/01 00:35:18;;;;;;;9.53;7.37;;;;;;;18.25;100.00;99823.58;1770488;79;21521;-63
2022/07/01 00:37:44;;;;;;;9.83;7.08;;;;;;;18.21;100.00;99823.19;1838881;77;21591;-63
2022/07/01 00:40:12;;;;;;;10.72;7.33;;;;;;;18.19;100.00;99820.73;1806566;77;21509;-63
2022/07/01 00:42:40;;;;;;;9.85;7.12;;;;;;;18.18;100.00;99817.73;1808801;77;20916;-63
2022/07/01 00:45:09;;;;;;;9.35;7.33;;;;;;;18.18;100.00;99814.98;1764077;79;21029;-63
2022/07/01 00:47:37;;;;;;;10.20;8.00;;;;;;;18.16;100.00;99818.63;1840357;76;20959;-63
2022/07/01 00:50:11;;;;;;;10.35;7.97;;;;;;;18.15;100.00;99821.69;1818637;76;21508;-62
2022/07/01 00:52:40;;;;;;;8.40;7.53;;;;;;;18.11;100.00;99824.83;1820175;77;20976;-63
2022/07/01 00:55:09;;;;;;;7.78;6.95;;;;;;;18.07;100.00;99828.80;1816649;77;21382;-63
2022/07/01 00:57:39;;;;;;;10.80;7.20;;;;;;;18.06;100.00;99836.02;1809688;77;21001;-63
2022/07/01 01:00:10;;;;;;;8.85;7.67;;;;;;;18.04;100.00;99839.08;1819217;77;21596;-62
2022/07/01 01:02:37;;;;;;;9.40;7.67;;;;;;;18.03;100.00;99834.69;1813484;77;20937;-63
2022/07/01 01:05:05;;;;;;;8.83;7.72;;;;;;;18.04;100.00;99834.13;1834525;77;21005;-62
2022/07/01 01:07:32;;;;;;;9.03;7.72;;;;;;;18.03;100.00;99836.06;1832241;77;21458;-63
2022/07/01 01:10:00;;;;;;;9.98;8.30;;;;;;;18.05;100.00;99831.63;1828019;77;21080;-63
2022/07/01 01:12:27;;;;;;;9.95;8.00;;;;;;;18.07;100.00;99834.30;1834322;77;20967;-63
2022/07/01 01:14:54;;;;;;;9.13;7.78;;;;;;;18.12;100.00;99836.11;1818709;77;21467;-62
2022/07/01 01:17:23;;;;;;;9.50;8.35;;;;;;;18.12;100.00;99831.98;1833773;77;20958;-62
2022/07/01 01:19:50;;;;;;;9.05;8.15;;;;;;;18.11;100.00;99832.53;1822683;77;21077;-63
2022/07/01 01:22:18;;;;;;;9.88;8.43;;;;;;;18.09;100.00;99836.19;1813173;77;20967;-63
2022/07/01 01:24:45;;;;;;;9.48;8.43;;;;;;;18.07;100.00;99834.86;1830076;77;21097;-62
2022/07/01 01:27:12;;;;;;;10.05;8.95;;;;;;;18.07;100.00;99834.86;1797827;78;21007;-62
2022/07/01 01:29:38;;;;;;;10.05;8.53;;;;;;;18.07;100.00;99837.05;1814599;77;21020;-62
2022/07/01 01:32:06;;;;;;;10.35;8.20;;;;;;;18.11;100.00;99836.67;1825819;78;20997;-63
2022/07/01 01:34:34;;;;;;;11.18;8.08;;;;;;;18.14;100.00;99839.38;1828035;77;21017;-62
2022/07/01 01:37:00;;;;;;;9.88;7.90;;;;;;;18.16;100.00;99834.34;1820614;77;20947;-63
2022/07/01 01:39:26;;;;;;;9.25;7.12;;;;;;;18.16;100.00;99832.41;1824482;77;21611;-63
2022/07/01 01:41:54;;;;;;;9.73;7.62;;;;;;;18.19;100.00;99838.65;1820655;77;21388;-62
2022/07/01 01:44:21;;;;;;;9.10;7.37;;;;;;;18.19;100.00;99837.27;1840036;77;21081;-63
2022/07/01 01:46:47;;;;;;;9.65;7.37;;;;;;;18.21;100.00;99840.50;1816291;77;20973;-63
2022/07/01 01:49:14;;;;;;;8.18;7.22;;;;;;;18.22;100.00;99833.05;1811813;77;21604;-63
2022/07/01 01:51:41;;;;;;;8.50;7.58;;;;;;;18.18;100.00;99839.77;1830007;77;20961;-63
2022/07/01 01:54:07;;;;;;;10.80;8.23;;;;;;;18.12;100.00;99841.62;1831666;77;21045;-63
2022/07/01 01:56:34;;;;;;;9.10;8.05;;;;;;;18.04;100.00;99849.27;1821640;78;21481;-63
2022/07/01 01:59:00;;;;;;;8.60;7.60;;;;;;;17.97;100.00;99845.61;1763522;80;21034;-63
2022/07/01 02:01:27;;;;;;;10.18;7.78;;;;;;;17.91;100.00;99848.27;1830424;77;20993;-63
2022/07/01 02:03:54;;;;;;;12.20;8.80;;;;;;;17.89;100.00;99856.02;1839833;76;21045;-63
2022/07/01 02:06:20;;;;;;;10.63;9.55;;;;;;;17.87;100.00;99854.97;1856481;76;21020;-63
2022/07/01 02:08:48;;;;;;;13.48;9.95;;;;;;;17.87;100.00;99855.53;1830751;77;21035;-63
2022/07/01 02:11:14;;;;;;;10.48;9.43;;;;;;;17.86;100.00;99858.03;1848015;76;20965;-63
2022/07/01 02:13:41;;;;;;;12.20;9.40;;;;;;;17.86;100.00;99853.34;1821897;77;21083;-63
2022/07/01 02:16:07;;;;;;;11.35;9.08;;;;;;;17.87;100.00;99854.97;1852125;76;20961;-62
2022/07/01 02:18:34;;;;;;;10.03;8.85;;;;;;;17.88;100.00;99850.28;1825514;77;21049;-62
2022/07/01 02:21:01;;;;;;;12.78;8.53;;;;;;;17.90;100.00;99848.83;1807931;77;20950;-63
2022/07/01 02:23:29;;;;;;;10.05;8.80;;;;;;;17.97;100.00;99852.49;1828053;77;21553;-63
2022/07/01 02:25:55;;;;;;;9.65;8.70;;;;;;;18.02;100.00;99845.48;1817415;77;21518;-63
2022/07/01 02:28:22;;;;;;;9.80;8.28;;;;;;;18.05;100.00;99848.97;1817125;77;21046;-63
2022/07/01 02:30:48;;;;;;;10.65;7.58;;;;;;;18.07;100.00;99849.45;1832767;77;21357;-63
2022/07/01 02:33:15;;;;;;;9.10;8.15;;;;;;;18.11;100.00;99854.58;1826649;78;21477;-63
2022/07/01 02:35:42;;;;;;;8.73;7.83;;;;;;;18.18;100.00;99852.17;1825143;76;21037;-62
2022/07/01 02:38:09;;;;;;;8.58;7.67;;;;;;;18.25;100.00;99848.38;1819916;77;20986;-63
2022/07/01 02:40:39;;;;;;;12.00;7.97;;;;;;;18.30;100.00;99856.52;1846698;76;20970;-63
2022/07/01 02:43:07;;;;;;;8.90;7.85;;;;;;;18.34;100.00;99858.88;1767490;79;21093;-63
2022/07/01 02:45:34;;;;;;;9.35;7.70;;;;;;;18.39;100.00;99853.77;1820262;77;21007;-63
2022/07/01 02:48:01;;;;;;;9.13;7.65;;;;;;;18.43;100.00;99858.07;1845250;76;21035;-63
2022/07/01 02:50:28;;;;;;;8.98;7.62;;;;;;;18.44;100.00;99848.12;1792340;77;20990;-63
2022/07/01 02:52:54;;;;;;;8.83;7.05;;;;;;;18.49;100.00;99855.43;1822220;76;21037;-63
2022/07/01 02:55:21;;;;;;;9.08;7.53;;;;;;;18.52;100.00;99851.50;1813041;77;21058;-63
2022/07/01 02:57:51;;;;;;;8.10;7.25;;;;;;;18.59;100.00;99852.40;1802070;77;21433;-63
2022/07/01 03:00:19;;;;;;;11.05;7.45;;;;;;;18.65;100.00;99852.48;1812837;77;20993;-62
2022/07/01 03:02:46;;;;;;;9.33;7.72;;;;;;;18.70;100.00;99853.72;1773408;79;20929;-63
2022/07/01 03:05:12;;;;;;;11.75;8.15;;;;;;;18.76;100.00;99855.17;1804712;78;21494;-63
2022/07/01 03:07:40;;;;;;;9.80;7.87;;;;;;;18.81;100.00;99853.66;1803114;77;20975;-63
2022/07/01 03:10:07;;;;;;;9.25;7.55;;;;;;;18.89;100.00;99858.34;1840471;77;20974;-63
2022/07/01 03:12:38;;;;;;;8.40;7.37;;;;;;;18.94;100.00;99854.63;1789790;79;20944;-63
2022/07/01 03:15:13;;;;;;;10.60;7.40;;;;;;;19.01;100.00;99858.52;1804570;77;21023;-61
2022/07/01 03:17:42;;;;;;;9.70;7.50;;;;;;;19.15;100.00;99849.51;1814666;77;20962;-61
2022/07/01 03:20:15;;;;;;;9.40;8.13;;;;;;;19.34;100.00;99856.86;1761494;81;21556;-61
2022/07/01 03:22:43;;;;;;;9.55;7.55;;;;;;;19.48;100.00;99864.20;1764822;79;20906;-61
2022/07/01 03:25:09;;;;;;;8.33;7.30;;;;;;;19.60;100.00;99862.94;1820475;79;21542;-61
2022/07/01 03:27:36;;;;;;;8.85;7.33;;;;;;;19.77;100.00;99869.23;1761494;80;21379;-61
2022/07/01 03:30:04;;;;;;;9.05;8.03;;;;;;;19.98;100.00;99867.94;1794854;78;21008;-61
2022/07/01 03:32:31;;;;;;;8.58;7.78;;;;;;;20.15;100.00;99865.13;1794119;80;20970;-61
2022/07/01 03:34:58;;;;;;;9.38;7.80;;;;;;;20.37;100.00;99870.19;1814535;78;21045;-62
2022/07/01 03:37:24;;;;;;;8.95;8.05;;;;;;;20.61;100.00;99871.75;1818165;78;20930;-62
2022/07/01 03:39:51;;;;;;;9.78;8.13;;;;;;;20.80;100.00;99868.75;1827633;77;20995;-61
2022/07/01 03:42:19;;;;;;;9.28;7.83;;;;;;;21.04;100.00;99869.49;1831088;76;21304;-61
2022/07/01 03:44:46;;;;;;;8.55;7.65;;;;;;;21.25;100.00;99862.58;1827974;76;21045;-62
2022/07/01 03:47:13;;;;;;;9.38;8.20;;;;;;;21.41;100.00;99855.83;1831611;76;21441;-62
2022/07/01 03:49:41;;;;;;;9.65;7.47;;;;;;;21.55;100.00;99859.11;1826435;76;20982;-62
2022/07/01 03:52:08;;;;;;;8.58;7.50;;;;;;;22.02;100.00;99859.02;1829560;78;21017;-61
2022/07/01 03:54:38;;;;;;;10.85;8.00;;;;;;;22.02;100.00;99859.02;1826256;77;21108;-62
2022/07/01 03:57:08;;;;;;;10.85;9.65;;;;;;;22.22;100.00;99859.48;1838713;76;22030;-64
2022/07/01 03:59:37;;;;;;;9.75;8.35;;;;;;;22.31;100.00;99844.14;1831258;77;21034;-63
2022/07/01 04:02:04;;;;;;;9.50;7.80;;;;;;;22.41;100.00;99845.05;1825215;78;20945;-64
2022/07/01 04:04:31;;;;;;;9.35;8.28;;;;;;;22.54;100.00;99842.48;1833849;77;21014;-63
2022/07/01 04:07:00;;;;;;;9.58;8.58;;;;;;;22.70;100.00;99839.85;1826486;77;21005;-64
2022/07/01 04:09:27;;;;;;;9.73;8.53;;;;;;;22.84;100.00;99845.83;1841518;76;21144;-63
2022/07/01 04:11:54;;;;;;;9.75;8.15;;;;;;;22.98;100.00;99828.22;1843713;76;20931;-63
2022/07/01 04:14:20;;;;;;;10.70;8.45;;;;;;;23.08;100.00;99829.67;1797608;78;21525;-63
2022/07/01 04:16:47;;;;;;;11.03;7.53;;;;;;;23.20;100.00;99836.59;1832845;78;20961;-63
2022/07/01 04:19:14;;;;;;;10.72;8.50;;;;;;;23.42;100.00;99828.31;1832870;78;21013;-64
2022/07/01 04:24:26;;;;;;;7.80;6.97;;;;;;;23.70;100.00;99827.08;1827051;77;21073;-64
2022/07/01 04:26:53;;;;;;;8.00;6.60;;;;;;;23.92;100.00;99821.48;1858833;76;21006;-64
2022/07/01 04:29:19;;;;;;;8.05;6.95;;;;;;;24.03;100.00;99814.81;1855920;77;21077;-64
2022/07/01 04:31:47;;;;;;;9.00;6.22;;;;;;;24.22;100.00;99811.56;1805378;77;21465;-64
2022/07/01 04:34:14;;;;;;;6.62;5.92;;;;;;;24.38;100.00;99808.74;1821441;79;21021;-64
2022/07/01 04:36:40;;;;;;;6.60;6.00;;;;;;;24.47;100.00;99812.73;1821426;79;21500;-64
2022/07/01 04:39:07;;;;;;;7.53;6.50;;;;;;;24.56;100.00;99807.18;1819310;77;21442;-63
2022/07/01 04:44:18;;;;;;;9.83;6.65;;;;;;;24.74;100.00;99810.36;1817211;78;21842;-64
2022/07/01 04:46:46;;;;;;;7.80;5.87;;;;;;;24.85;100.00;99809.23;1817537;79;20995;-65
2022/07/01 04:49:12;;;;;;;8.08;6.00;;;;;;;24.98;100.00;99810.11;1820026;79;21001;-65
2022/07/01 04:51:39;;;;;;;9.20;6.12;;;;;;;25.21;100.00;99813.80;1812867;78;20987;-65
2022/07/01 04:54:06;;;;;;;8.53;6.50;;;;;;;25.50;100.00;99812.95;1844752;76;21087;-65
2022/07/01 04:56:34;;;;;;;7.80;5.75;;;;;;;25.47;100.00;99806.73;1828663;78;21002;-65
2022/07/01 04:59:01;;;;;;;9.73;5.70;;;;;;;25.51;100.00;99810.39;1830914;78;21064;-66
2022/07/01 05:01:32;;;;;;;7.33;5.67;;;;;;;25.71;100.00;99814.77;1829694;76;21381;-64
2022/07/01 05:03:59;;;;;;;5.70;5.10;;;;;;;25.83;100.00;99810.97;1826189;76;21030;-64
2022/07/01 05:06:26;;;;;;;5.47;4.85;;;;;;;25.99;100.00;99816.66;1828377;77;21505;-63
2022/07/01 05:08:53;;;;;;;6.58;5.15;;;;;;;26.15;100.00;99820.11;1825757;77;20998;-64
2022/07/01 05:11:22;;;;;;;5.50;4.87;;;;;;;26.26;100.00;99811.13;1831582;77;21511;-64
2022/07/01 05:13:49;;;;;;;6.67;4.90;;;;;;;26.39;100.00;99814.76;1832206;77;21013;-63
2022/07/01 05:16:16;;;;;;;6.15;4.72;;;;;;;26.64;100.00;99820.09;1805035;77;21129;-63
2022/07/01 05:24:13;;;;;;;6.90;4.70;;;;;;;27.49;100.00;99810.66;1812150;77;21403;-65
2022/07/01 05:26:40;;;;;;;10.13;4.83;;;;;;;27.60;100.00;99809.56;1829498;78;20983;-65
2022/07/01 05:29:06;;;;;;;4.53;4.12;;;;;;;27.71;100.00;99799.88;1824975;78;21032;-64
2022/07/01 05:31:33;;;;;;;6.30;4.12;;;;;;;27.81;100.00;99804.77;1832819;78;21013;-66
2022/07/01 05:34:00;;;;;;;7.62;4.60;;;;;;;27.82;100.00;99802.19;1829495;78;21757;-66
2022/07/01 05:36:27;;;;;;;4.70;3.83;;;;;;;27.80;100.00;99798.98;1813029;78;21719;-65
2022/07/01 05:38:54;;;;;;;5.03;4.30;;;;;;;27.90;100.00;99798.28;1820513;77;21046;-66
2022/07/01 05:41:21;;;;;;;5.17;3.95;;;;;;;28.28;100.00;99801.80;1830739;78;20991;-66
2022/07/01 05:43:47;;;;;;;5.40;3.85;;;;;;;28.49;100.00;99799.14;1827925;78;21006;-66
2022/07/01 05:46:14;;;;;;;3.87;3.25;;;;;;;28.57;100.00;99793.80;1761637;81;21007;-66
2022/07/01 05:48:41;;;;;;;5.50;3.70;;;;;;;29.01;100.00;99796.47;1816661;79;21077;-66
2022/07/01 05:51:07;;;;;;;5.25;3.55;;;;;;;29.45;100.00;99794.23;1813856;77;21030;-65
2022/07/01 05:53:35;;;;;;;6.80;3.95;;;;;;;29.68;100.00;99795.30;1808833;77;21048;-65
2022/07/01 05:56:01;;;;;;;4.62;3.30;;;;;;;29.59;100.00;99789.25;1809066;78;21459;-66
2022/07/01 05:58:28;;;;;;;5.00;3.12;;;;;;;29.55;100.00;99787.84;1816797;77;20973;-66
2022/07/01 06:00:54;;;;;;;5.25;3.90;;;;;;;29.88;100.00;99783.91;1813678;78;21011;-65
2022/07/01 06:03:21;;;;;;;4.92;3.67;;;;;;;30.06;100.00;99783.91;1822898;77;21031;-65
2022/07/01 06:05:47;;;;;;;5.17;4.03;;;;;;;30.12;100.00;99785.91;1783567;80;21021;-65
2022/07/01 06:08:13;;;;;;;4.95;3.92;;;;;;;30.25;100.00;99779.90;1755557;80;21561;-65
2022/07/01 06:10:42;;;;;;;4.60;3.55;;;;;;;30.29;100.00;99782.11;1782987;79;21038;-65
2022/07/01 06:13:09;;;;;;;7.65;3.58;;;;;;;30.26;100.00;99785.09;1781779;79;21887;-66
2022/07/01 06:15:35;;;;;;;5.12;3.30;;;;;;;30.16;100.00;99784.51;1779728;79;20987;-64
2022/07/01 06:18:02;;;;;;;4.75;3.20;;;;;;;30.05;100.00;99778.09;1779369;80;21030;-63
2022/07/01 06:20:29;;;;;;;5.08;3.33;;;;;;;30.20;100.00;99769.06;1770587;80;21569;-65
2022/07/01 06:22:57;;;;;;;4.03;2.90;;;;;;;30.70;100.00;99780.44;1782235;79;21664;-64
2022/07/01 06:25:23;;;;;;;3.55;3.00;;;;;;;31.37;100.00;99777.36;1827342;76;21509;-64
2022/07/01 06:27:50;;;;;;;4.35;2.95;;;;;;;31.67;100.00;99777.41;1822760;76;20949;-65
2022/07/01 06:30:16;;;;;;;4.08;2.55;;;;;;;31.32;100.00;99777.78;1831601;77;21061;-64
2022/07/01 06:32:43;;;;;;;3.10;2.42;;;;;;;31.01;100.00;99780.95;1813401;77;21312;-63
2022/07/01 06:35:09;;;;;;;3.55;2.80;;;;;;;30.92;100.00;99775.55;1803195;77;20970;-64
2022/07/01 06:37:36;;;;;;;2.75;2.50;;;;;;;30.72;100.00;99770.98;1829353;77;20961;-64
2022/07/01 06:40:04;;;;;;;4.33;2.72;;;;;;;30.59;100.00;99776.85;1829692;78;20927;-64
2022/07/01 06:42:31;;;;;;;5.22;2.77;;;;;;;30.90;100.00;99774.53;1767394;78;21506;-65
2022/07/01 06:44:58;;;;;;;8.13;2.80;;;;;;;30.97;100.00;99772.33;1828552;78;21033;-65
2022/07/01 06:47:24;;;;;;;3.75;2.30;;;;;;;31.20;100.00;99776.05;1792157;78;20947;-64
2022/07/01 06:49:51;;;;;;;3.90;2.80;;;;;;;31.55;100.00;99766.02;1831614;77;21052;-64
2022/07/01 06:52:18;;;;;;;4.75;2.83;;;;;;;31.59;100.00;99769.62;1831190;77;21402;-64
2022/07/01 06:54:44;;;;;;;3.80;2.72;;;;;;;31.32;100.00;99764.34;1832020;77;21018;-63
2022/07/01 06:57:12;;;;;;;5.62;3.10;;;;;;;31.25;100.00;99760.17;1835631;76;21506;-64
2022/07/01 06:59:39;;;;;;;3.25;2.58;;;;;;;31.45;100.00;99762.65;1827717;76;21080;-63
2022/07/01 07:02:07;;;;;;;3.37;2.30;;;;;;;31.72;100.00;99761.48;1784879;78;20986;-65
2022/07/01 07:04:34;;;;;;;3.52;2.47;;;;;;;31.93;97.73;99764.13;1833145;76;21028;-65
2022/07/01 07:07:02;;;;;;;2.87;2.20;;;;;;;31.79;100.00;99767.86;1834884;76;21563;-65
2022/07/01 07:09:29;;;;;;;3.27;2.08;;;;;;;31.74;94.97;99766.10;1793862;78;21502;-65
2022/07/01 07:11:56;;;;;;;3.98;2.52;;;;;;;31.47;99.31;99774.28;1821406;76;21541;-64
2022/07/01 07:14:22;;;;;;;4.00;2.37;;;;;;;31.42;100.00;99771.91;1853555;76;21013;-64
2022/07/01 07:16:51;;;;;;;5.10;2.50;;;;;;;31.36;100.00;99776.34;1839594;76;20942;-63
2022/07/01 07:19:17;;;;;;;2.98;2.33;;;;;;;30.98;100.00;99774.74;1818347;77;21081;-64
2022/07/01 07:21:43;;;;;;;3.75;2.27;;;;;;;30.87;100.00;99776.76;1828000;76;20993;-65
2022/07/01 07:24:10;;;;;;;3.47;2.30;;;;;;;30.95;100.00;99772.72;1830689;76;21014;-65
2022/07/01 07:26:36;;;;;;;5.72;2.50;;;;;;;31.02;100.00;99767.70;1826725;76;21024;-65
2022/07/01 07:29:03;;;;;;;3.42;2.70;;;;;;;31.10;100.00;99772.09;1807836;78;21013;-65
2022/07/01 07:31:30;;;;;;;4.65;2.42;;;;;;;31.23;100.00;99765.38;1828850;78;21037;-66
2022/07/01 07:33:58;;;;;;;5.45;2.70;;;;;;;31.38;97.29;99769.73;1771775;80;21083;-65
2022/07/01 07:36:24;;;;;;;5.45;2.67;;;;;;;31.31;97.99;99762.13;1826545;76;20978;-64
2022/07/01 07:38:51;;;;;;;2.90;2.55;;;;;;;31.32;96.75;99758.72;1829299;77;21564;-65
2022/07/01 07:41:17;;;;;;;3.80;2.50;;;;;;;31.30;98.27;99756.31;1826350;76;21034;-64
2022/07/01 07:43:44;;;;;;;4.10;2.35;;;;;;;31.35;90.07;99752.27;1795182;78;21643;-64
2022/07/01 07:46:11;;;;;;;4.75;2.27;;;;;;;31.21;86.71;99759.38;1829019;76;21108;-64
2022/07/01 07:48:38;;;;;;;4.25;2.67;;;;;;;31.14;90.33;99754.60;1830040;78;21073;-65
2022/07/01 07:51:04;;;;;;;3.92;2.60;;;;;;;31.22;82.99;99756.74;1828194;77;21547;-66
2022/07/01 07:53:31;;;;;;;5.47;2.77;;;;;;;31.51;94.94;99756.77;1830004;77;21157;-66
2022/07/01 07:55:58;;;;;;;4.58;2.83;;;;;;;31.99;85.10;99755.45;1833863;76;20996;-65
2022/07/01 07:58:25;;;;;;;3.33;2.50;;;;;;;32.29;77.61;99747.73;1829982;76;21063;-66
2022/07/01 08:00:51;;;;;;;4.20;2.75;;;;;;;32.79;79.12;99736.74;1799612;78;21063;-65
2022/07/01 08:03:18;;;;;;;3.42;2.60;;;;;;;32.84;68.86;99737.70;1732133;81;21014;-66
2022/07/01 08:05:45;;;;;;;3.08;2.77;;;;;;;32.63;71.55;99738.73;1795484;78;20976;-66
2022/07/01 08:08:12;;;;;;;4.75;3.02;;;;;;;32.65;74.21;99737.72;1814723;77;21030;-67
2022/07/01 08:10:40;;;;;;;5.22;3.27;;;;;;;32.62;72.65;99738.56;1834759;77;21070;-65
2022/07/01 08:13:06;;;;;;;5.67;3.45;;;;;;;32.47;69.48;99737.89;1824003;77;20990;-64
2022/07/01 08:15:33;;;;;;;5.00;3.72;;;;;;;32.28;78.20;99738.48;1830975;77;21027;-62
2022/07/01 08:17:59;;;;;;;5.17;3.67;;;;;;;32.05;90.63;99733.49;1821271;77;21038;-63
2022/07/01 08:20:26;;;;;;;5.42;3.70;;;;;;;31.69;100.00;99744.02;1763678;79;21055;-64
2022/07/01 08:22:52;;;;;;;8.15;4.53;;;;;;;31.11;100.00;99750.41;1821765;77;21034;-65
2022/07/01 08:25:19;;;;;;;4.62;3.67;;;;;;;30.83;100.00;99746.45;1826012;76;21012;-64
2022/07/01 08:27:46;;;;;;;7.87;4.03;;;;;;;31.16;100.00;99737.30;1821283;77;21057;-66
2022/07/01 08:30:13;;;;;;;5.50;3.45;;;;;;;31.29;100.00;99736.41;1824188;76;21030;-64
2022/07/01 08:32:40;;;;;;;11.68;5.20;;;;;;;31.65;93.72;99732.79;1798244;78;21002;-63
2022/07/01 08:35:08;;;;;;;4.92;4.30;;;;;;;32.14;98.90;99728.77;1816349;77;21025;-65
2022/07/01 08:37:35;;;;;;;10.13;4.50;;;;;;;32.72;85.62;99724.14;1788342;78;20961;-65
2022/07/01 08:40:04;;;;;;;5.28;3.75;;;;;;;32.77;84.56;99726.52;1830201;77;21378;-65
2022/07/01 08:42:31;;;;;;;7.85;4.97;;;;;;;32.88;88.43;99729.97;1735625;80;20994;-65
2022/07/01 08:44:57;;;;;;;5.20;4.33;;;;;;;33.16;85.63;99721.80;1819220;77;21115;-66
2022/07/01 08:47:24;;;;;;;4.80;3.40;;;;;;;33.29;72.45;99725.02;1787468;77;21010;-67
2022/07/01 08:49:51;;;;;;;5.45;3.65;;;;;;;32.72;65.45;99735.42;1781974;79;21105;-67
2022/07/01 08:52:17;;;;;;;4.95;3.35;;;;;;;32.03;72.87;99729.44;1785082;76;20990;-66
2022/07/01 08:54:44;;;;;;;6.72;3.25;;;;;;;31.45;73.81;99728.30;1833670;77;21020;-65
2022/07/01 08:57:10;;;;;;;4.53;3.35;;;;;;;31.08;94.40;99722.48;1834215;76;21023;-65
2022/07/01 08:59:38;;;;;;;3.98;3.22;;;;;;;31.25;95.83;99723.61;1832194;77;21389;-64
2022/07/01 09:02:05;;;;;;;3.92;3.08;;;;;;;31.51;92.30;99727.23;1836824;76;20981;-66
2022/07/01 09:04:33;;;;;;;5.80;2.83;;;;;;;31.47;81.28;99722.23;1828135;77;21524;-65
2022/07/01 09:07:08;;;;;;;5.92;4.05;;;;;;;31.25;91.67;99713.77;1833628;76;20970;-65
2022/07/01 09:09:36;;;;;;;3.67;2.83;;;;;;;30.81;99.99;99727.02;1853938;76;21101;-65
2022/07/01 09:12:04;;;;;;;4.35;3.10;;;;;;;30.51;87.70;99722.69;1787772;79;20990;-66
2022/07/01 09:14:32;;;;;;;4.28;2.80;;;;;;;30.21;86.64;99717.34;1818151;77;21842;-64
2022/07/01 09:17:01;;;;;;;3.05;2.75;;;;;;;29.89;95.05;99719.59;1806373;77;21119;-66
2022/07/01 09:19:32;;;;;;;4.58;2.80;;;;;;;29.77;97.92;99716.33;1777663;79;21034;-66
2022/07/01 09:22:00;;;;;;;3.58;3.10;;;;;;;29.83;100.00;99716.92;1851708;76;21049;-65
2022/07/01 09:24:36;;;;;;;4.92;2.52;;;;;;;29.96;100.00;99713.16;1850272;77;21048;-67
2022/07/01 09:27:10;;;;;;;4.12;3.27;;;;;;;29.95;94.61;99712.36;1817021;77;21033;-65
2022/07/01 09:29:46;;;;;;;3.60;3.08;;;;;;;29.93;85.91;99710.56;1847775;77;21021;-64
2022/07/01 09:32:17;;;;;;;4.65;3.45;;;;;;;30.06;87.48;99707.53;1829211;76;21021;-65
2022/07/01 09:34:46;;;;;;;3.75;3.30;;;;;;;30.10;82.39;99701.91;1825356;77;21031;-66
2022/07/01 09:37:15;;;;;;;4.60;3.40;;;;;;;29.99;82.35;99708.95;1865149;76;21026;-66
2022/07/01 09:39:54;;;;;;;6.55;3.95;;;;;;;29.94;83.00;99705.73;1842720;76;21487;-64
2022/07/01 09:42:23;;;;;;;5.78;3.55;;;;;;;29.90;88.64;99701.52;1834316;76;20982;-65
2022/07/01 09:44:58;;;;;;;4.80;3.90;;;;;;;29.80;96.15;99705.11;1836407;76;21024;-66
2022/07/01 09:47:26;;;;;;;5.03;3.40;;;;;;;29.88;98.04;99701.73;1836623;77;21035;-66
2022/07/01 09:49:53;;;;;;;5.80;3.72;;;;;;;29.90;100.00;99702.92;1834219;77;20993;-66
2022/07/01 09:52:20;;;;;;;5.70;3.95;;;;;;;29.74;100.00;99703.92;1830865;76;21018;-66
2022/07/01 09:54:47;;;;;;;5.25;3.70;;;;;;;29.55;100.00;99702.90;1816316;78;21038;-66
2022/07/01 09:57:18;;;;;;;5.03;4.03;;;;;;;29.34;100.00;99702.88;1832198;77;21031;-66
2022/07/01 09:59:44;;;;;;;5.10;3.95;;;;;;;29.30;100.00;99706.30;1803005;78;21019;-65
2022/07/01 10:02:11;;;;;;;5.08;4.35;;;;;;;29.34;100.00;99711.29;1822886;77;20938;-65
2022/07/01 10:04:55;;;;;;;6.05;3.80;;;;;;;29.35;100.00;99714.30;1845318;77;21005;-65
2022/07/01 10:07:55;;;;;;;5.92;4.17;;;;;;;29.03;100.00;99710.80;1803575;77;20981;-66
2022/07/01 10:10:45;;;;;;;4.35;3.92;;;;;;;28.65;100.00;99712.25;1840319;76;20949;-65
2022/07/01 10:13:14;;;;;;;6.85;3.67;;;;;;;28.45;100.00;99709.52;1850700;76;21618;-64
2022/07/01 10:15:45;;;;;;;6.78;4.00;;;;;;;28.30;100.00;99710.66;1843641;76;20970;-65
2022/07/01 10:18:24;;;;;;;5.50;4.33;;;;;;;28.25;100.00;99704.61;1788438;78;21549;-64
2022/07/01 10:20:51;;;;;;;6.42;4.00;;;;;;;28.21;100.00;99704.59;1821114;77;20915;-64
2022/07/01 10:23:22;;;;;;;6.83;4.30;;;;;;;28.24;100.00;99700.20;1832231;78;21042;-65
2022/07/01 10:25:53;;;;;;;4.22;3.80;;;;;;;28.16;100.00;99705.76;1829691;78;20947;-65
2022/07/01 10:28:30;;;;;;;10.00;7.87;;;;;;;28.09;100.00;99708.51;1839713;77;20988;-64
2022/07/01 10:31:01;;;;;;;5.25;3.55;;;;;;;28.13;100.00;99701.53;1803884;77;21595;-65
2022/07/01 10:33:42;;;;;;;4.80;3.50;;;;;;;28.24;100.00;99691.80;1870504;76;21029;-64
2022/07/01 10:36:20;;;;;;;3.87;3.27;;;;;;;28.39;100.00;99693.50;1862193;76;21533;-65
2022/07/01 10:39:10;;;;;;;6.17;3.70;;;;;;;28.55;100.00;99690.60;1842738;77;21038;-65
2022/07/01 10:41:40;;;;;;;4.35;3.77;;;;;;;28.58;100.00;99700.20;1840644;77;21533;-63
2022/07/01 10:44:12;;;;;;;3.52;3.22;;;;;;;28.40;100.00;99690.91;1818003;77;21086;-63
2022/07/01 10:46:50;;;;;;;4.20;3.80;;;;;;;28.27;100.00;99682.66;1812248;77;20970;-65
2022/07/01 10:49:19;;;;;;;3.95;3.47;;;;;;;28.26;100.00;99683.84;1822635;77;21093;-65
2022/07/01 10:51:55;;;;;;;7.17;4.22;;;;;;;28.33;100.00;99677.69;1778988;79;21518;-65
2022/07/01 10:54:45;;;;;;;6.10;3.75;;;;;;;28.29;100.00;99678.27;1828408;77;21033;-65
2022/07/01 10:57:22;;;;;;;7.58;3.45;;;;;;;28.24;100.00;99678.63;1815708;77;21004;-64
2022/07/01 11:00:04;;;;;;;4.95;3.40;;;;;;;28.34;100.00;99682.06;1819995;78;20993;-63
2022/07/01 11:02:36;;;;;;;3.80;2.83;;;;;;;28.40;100.00;99683.91;1829580;78;21518;-64
2022/07/01 11:06:38;;;;;;;;;;;;;;;28.67;100.00;99672.66;1802538;79;22781;-64
2022/07/01 11:09:03;;;;;;;12.23;3.77;;;;;;;28.61;100.00;99676.41;1741535;80;20468;-64
2022/07/01 11:11:31;;;;;;;3.83;3.30;;;;;;;28.66;100.00;99680.22;1726063;82;21017;-65
2022/07/01 11:13:58;;;;;;;4.95;3.33;;;;;;;28.59;100.00;99684.39;1731082;82;21026;-65
2022/07/01 11:16:24;;;;;;;6.05;2.95;;;;;;;28.59;100.00;99678.79;1711710;82;21038;-64
2022/07/01 11:18:51;;;;;;;6.58;3.25;;;;;;;28.66;98.96;99683.64;1674451;83;21068;-65
2022/07/01 11:21:17;;;;;;;3.80;2.85;;;;;;;28.77;100.00;99678.89;1722780;83;21010;-65
2022/07/01 11:23:55;;;;;;;3.35;2.80;;;;;;;28.80;93.72;99673.92;1709038;83;21525;-63
2022/07/01 11:26:24;;;;;;;5.78;2.95;;;;;;;28.82;95.00;99674.31;1698102;84;21054;-62
2022/07/01 11:28:50;;;;;;;5.35;2.90;;;;;;;28.89;90.41;99671.53;1700443;83;21042;-63
2022/07/01 11:31:29;;;;;;;4.90;2.55;;;;;;;28.91;93.20;99665.55;1665071;84;21542;-63
2022/07/01 11:33:56;;;;;;;3.33;2.22;;;;;;;28.90;95.78;99665.34;1650786;87;21504;-63
2022/07/01 11:39:25;;;;;;;4.33;2.75;;;;;;;29.01;94.34;99671.18;1695869;83;21082;-64
2022/07/01 11:41:56;;;;;;;3.45;2.83;;;;;;;29.08;91.69;99659.18;1689857;83;21012;-63
2022/07/01 11:44:36;;;;;;;4.53;3.00;;;;;;;29.03;95.54;99658.96;1672189;84;21070;-65
2022/07/01 11:47:07;;;;;;;5.25;3.08;;;;;;;29.07;96.18;99658.97;1656585;84;21007;-64